Terminal Aerodrome Forecast
Issued by NWS Sterling, VA

Current Version | Previous Version | Graphics & Text | Print | Product List | Glossary On
Versions: 1 2 3 4 5 6 7 8 9 10 11 12 13 14 15 16 17 18 19 20 21 22 23
000
FTUS41 KLWX 251700
TAFDCA
TAF
KDCA 251725Z 2518/2618 33005KT P6SM FEW050
     FM252000 27005KT P6SM FEW050
     FM260000 VRB03KT P6SM FEW250
     FM260900 19004KT P6SM SCT050
     FM261600 21008KT P6SM BKN120=

USA.gov is the U.S. government's official web portal to all federal, state and local government web resources and services.